sensor_id;sensor_type;location;lat;lon;timestamp;temperature;humidity
7564;DHT22;3823;53.586;10.040;2023-04-03T05:01:57;2.20;99.90
7564;DHT22;3823;53.586;10.040;2023-04-03T05:04:23;2.20;99.90
7564;DHT22;3823;53.586;10.040;2023-04-03T05:06:48;2.20;99.90
7564;DHT22;3823;53.586;10.040;2023-04-03T05:09:14;2.20;99.90
7564;DHT22;3823;53.586;10.040;2023-04-03T05:11:40;2.20;99.90
7564;DHT22;3823;53.586;10.040;2023-04-03T05:14:05;2.30;99.90
7564;DHT22;3823;53.586;10.040;2023-04-03T05:16:32;2.30;99.90
7564;DHT22;3823;53.586;10.040;2023-04-03T05:18:58;2.30;94.20
7564;DHT22;3823;53.586;10.040;2023-04-03T05:21:23;2.40;95.60
7564;DHT22;3823;53.586;10.040;2023-04-03T05:23:51;2.50;91.60
7564;DHT22;3823;53.586;10.040;2023-04-03T05:26:17;2.50;79.80
7564;DHT22;3823;53.586;10.040;2023-04-03T05:28:43;2.60;86.20
7564;DHT22;3823;53.586;10.040;2023-04-03T05:31:08;2.70;78.10
7564;DHT22;3823;53.586;10.040;2023-04-03T05:33:34;2.70;65.10
7564;DHT22;3823;53.586;10.040;2023-04-03T05:36:06;2.80;66.80
7564;DHT22;3823;53.586;10.040;2023-04-03T05:38:32;3.00;48.00
7564;DHT22;3823;53.586;10.040;2023-04-03T05:40:58;3.10;22.90
7564;DHT22;3823;53.586;10.040;2023-04-03T05:43:24;3.10;10.10
7564;DHT22;3823;53.586;10.040;2023-04-03T05:45:50;3.20;9.70
7564;DHT22;3823;53.586;10.040;2023-04-03T05:48:16;3.30;5.20
7564;DHT22;3823;53.586;10.040;2023-04-03T05:50:42;3.40;1.00
7564;DHT22;3823;53.586;10.040;2023-04-03T05:53:17;3.50;1.00
7564;DHT22;3823;53.586;10.040;2023-04-03T05:55:43;3.60;1.00
7564;DHT22;3823;53.586;10.040;2023-04-03T05:58:09;3.80;1.00
7564;DHT22;3823;53.586;10.040;2023-04-03T06:00:34;3.90;1.00
7564;DHT22;3823;53.586;10.040;2023-04-03T06:03:00;4.00;1.00
7564;DHT22;3823;53.586;10.040;2023-04-03T06:05:25;4.10;1.00
7564;DHT22;3823;53.586;10.040;2023-04-03T06:07:51;4.30;1.00
7564;DHT22;3823;53.586;10.040;2023-04-03T06:10:17;4.50;1.00
7564;DHT22;3823;53.586;10.040;2023-04-03T06:12:42;4.60;1.00
7564;DHT22;3823;53.586;10.040;2023-04-03T06:15:08;4.80;1.00
7564;DHT22;3823;53.586;10.040;2023-04-03T06:17:36;5.00;1.00
7564;DHT22;3823;53.586;10.040;2023-04-03T06:20:03;5.20;1.00
7564;DHT22;3823;53.586;10.040;2023-04-03T06:22:29;5.40;1.00
7564;DHT22;3823;53.586;10.040;2023-04-03T06:24:55;5.60;1.00
7564;DHT22;3823;53.586;10.040;2023-04-03T06:27:21;5.70;1.00
7564;DHT22;3823;53.586;10.040;2023-04-03T06:29:47;6.00;1.00
7564;DHT22;3823;53.586;10.040;2023-04-03T06:32:13;6.10;1.00
7564;DHT22;3823;53.586;10.040;2023-04-03T06:34:38;6.20;1.00
7564;DHT22;3823;53.586;10.040;2023-04-03T06:37:04;6.30;1.00
7564;DHT22;3823;53.586;10.040;2023-04-03T06:39:30;6.50;1.00
7564;DHT22;3823;53.586;10.040;2023-04-03T06:41:56;6.70;1.00
7564;DHT22;3823;53.586;10.040;2023-04-03T06:44:21;6.80;1.00
7564;DHT22;3823;53.586;10.040;2023-04-03T06:46:47;6.90;1.00
7564;DHT22;3823;53.586;10.040;2023-04-03T06:49:13;7.10;1.00
7564;DHT22;3823;53.586;10.040;2023-04-03T06:51:40;7.30;1.00
7564;DHT22;3823;53.586;10.040;2023-04-03T06:54:06;7.50;1.00
7564;DHT22;3823;53.586;10.040;2023-04-03T06:56:34;7.40;1.00
7564;DHT22;3823;53.586;10.040;2023-04-03T06:59:00;7.50;1.00
7564;DHT22;3823;53.586;10.040;2023-04-03T07:01:27;7.70;1.00
7564;DHT22;3823;53.586;10.040;2023-04-03T07:03:53;8.00;1.00
7564;DHT22;3823;53.586;10.040;2023-04-03T07:06:22;8.10;1.00
7564;DHT22;3823;53.586;10.040;2023-04-03T07:08:48;8.20;1.00
7564;DHT22;3823;53.586;10.040;2023-04-03T07:11:14;8.30;1.00
7564;DHT22;3823;53.586;10.040;2023-04-03T07:13:40;8.40;1.00
7564;DHT22;3823;53.586;10.040;2023-04-03T07:16:06;8.60;1.00
7564;DHT22;3823;53.586;10.040;2023-04-03T07:18:32;8.80;1.00
7564;DHT22;3823;53.586;10.040;2023-04-03T07:20:58;8.90;1.00
7564;DHT22;3823;53.586;10.040;2023-04-03T07:23:24;8.80;1.00
7564;DHT22;3823;53.586;10.040;2023-04-03T07:25:51;8.90;1.00
7564;DHT22;3823;53.586;10.040;2023-04-03T07:28:18;9.30;1.00
7564;DHT22;3823;53.586;10.040;2023-04-03T07:30:48;9.20;1.00
7564;DHT22;3823;53.586;10.040;2023-04-03T07:33:16;8.80;1.00
7564;DHT22;3823;53.586;10.040;2023-04-03T07:35:42;8.70;1.00
7564;DHT22;3823;53.586;10.040;2023-04-03T07:38:09;8.90;1.00
7564;DHT22;3823;53.586;10.040;2023-04-03T07:40:36;9.00;1.00
7564;DHT22;3823;53.586;10.040;2023-04-03T07:43:01;8.90;1.00
7564;DHT22;3823;53.586;10.040;2023-04-03T07:45:27;8.50;1.00
7564;DHT22;3823;53.586;10.040;2023-04-03T07:47:53;8.40;1.00
7564;DHT22;3823;53.586;10.040;2023-04-03T07:50:19;8.90;1.00
7564;DHT22;3823;53.586;10.040;2023-04-03T07:52:45;9.10;1.00
7564;DHT22;3823;53.586;10.040;2023-04-03T07:55:11;9.60;1.00
7564;DHT22;3823;53.586;10.040;2023-04-03T07:57:37;9.60;1.00
7564;DHT22;3823;53.586;10.040;2023-04-03T08:00:06;9.20;1.00
7564;DHT22;3823;53.586;10.040;2023-04-03T08:02:32;9.10;1.00
7564;DHT22;3823;53.586;10.040;2023-04-03T08:04:58;9.00;1.00
7564;DHT22;3823;53.586;10.040;2023-04-03T08:07:24;9.10;1.00
7564;DHT22;3823;53.586;10.040;2023-04-03T08:09:50;8.50;1.00
7564;DHT22;3823;53.586;10.040;2023-04-03T08:12:16;9.00;1.00
7564;DHT22;3823;53.586;10.040;2023-04-03T08:14:41;9.80;1.00
7564;DHT22;3823;53.586;10.040;2023-04-03T08:17:07;10.40;1.00
7564;DHT22;3823;53.586;10.040;2023-04-03T08:19:39;10.30;1.00
7564;DHT22;3823;53.586;10.040;2023-04-03T08:22:06;10.50;1.00
7564;DHT22;3823;53.586;10.040;2023-04-03T08:24:33;10.60;1.00
7564;DHT22;3823;53.586;10.040;2023-04-03T08:26:58;10.50;1.00
7564;DHT22;3823;53.586;10.040;2023-04-03T08:29:24;10.30;1.00
7564;DHT22;3823;53.586;10.040;2023-04-03T08:31:50;9.90;1.00
7564;DHT22;3823;53.586;10.040;2023-04-03T08:34:16;9.50;1.00
7564;DHT22;3823;53.586;10.040;2023-04-03T08:36:42;10.50;1.00
7564;DHT22;3823;53.586;10.040;2023-04-03T08:39:08;11.30;1.00
7564;DHT22;3823;53.586;10.040;2023-04-03T08:41:39;11.80;1.00
7564;DHT22;3823;53.586;10.040;2023-04-03T08:44:15;11.90;1.00
7564;DHT22;3823;53.586;10.040;2023-04-03T08:49:44;12.40;1.00
7564;DHT22;3823;53.586;10.040;2023-04-03T08:52:17;12.30;1.00
7564;DHT22;3823;53.586;10.040;2023-04-03T08:54:53;12.50;1.00
7564;DHT22;3823;53.586;10.040;2023-04-03T08:57:30;12.30;1.00
7564;DHT22;3823;53.586;10.040;2023-04-03T09:00:01;11.60;1.00
7564;DHT22;3823;53.586;10.040;2023-04-03T09:02:52;11.80;1.00
7564;DHT22;3823;53.586;10.040;2023-04-03T09:08:04;11.70;1.00
7564;DHT22;3823;53.586;10.040;2023-04-03T09:10:33;11.60;1.00
7564;DHT22;3823;53.586;10.040;2023-04-03T09:15:44;11.60;1.00
7564;DHT22;3823;53.586;10.040;2023-04-03T09:18:12;12.30;1.00
7564;DHT22;3823;53.586;10.040;2023-04-03T09:25:46;12.10;1.00
7564;DHT22;3823;53.586;10.040;2023-04-03T09:28:11;12.50;1.00
7564;DHT22;3823;53.586;10.040;2023-04-03T09:30:37;12.90;1.00
7564;DHT22;3823;53.586;10.040;2023-04-03T09:33:04;12.90;1.00
7564;DHT22;3823;53.586;10.040;2023-04-03T09:35:33;13.10;1.00
7564;DHT22;3823;53.586;10.040;2023-04-03T09:40:40;13.50;1.00
7564;DHT22;3823;53.586;10.040;2023-04-03T09:43:26;13.30;1.00
7564;DHT22;3823;53.586;10.040;2023-04-03T09:45:53;13.90;1.00
7564;DHT22;3823;53.586;10.040;2023-04-03T09:48:24;13.90;1.00
7564;DHT22;3823;53.586;10.040;2023-04-03T09:53:45;14.90;1.00
7564;DHT22;3823;53.586;10.040;2023-04-03T09:56:21;15.00;1.00
7564;DHT22;3823;53.586;10.040;2023-04-03T09:59:13;14.30;1.00
7564;DHT22;3823;53.586;10.040;2023-04-03T10:01:57;14.50;1.00
7564;DHT22;3823;53.586;10.040;2023-04-03T10:04:23;14.30;1.00
7564;DHT22;3823;53.586;10.040;2023-04-03T10:06:52;13.60;1.00
7564;DHT22;3823;53.586;10.040;2023-04-03T10:09:27;13.80;1.00
7564;DHT22;3823;53.586;10.040;2023-04-03T10:12:12;14.30;1.00
7564;DHT22;3823;53.586;10.040;2023-04-03T10:14:54;14.70;1.00
7564;DHT22;3823;53.586;10.040;2023-04-03T10:17:32;15.00;1.00
7564;DHT22;3823;53.586;10.040;2023-04-03T10:23:01;13.00;1.00
7564;DHT22;3823;53.586;10.040;2023-04-03T10:25:33;12.60;1.00
7564;DHT22;3823;53.586;10.040;2023-04-03T10:34:13;14.20;1.00
7564;DHT22;3823;53.586;10.040;2023-04-03T10:50:27;15.00;1.00
7564;DHT22;3823;53.586;10.040;2023-04-03T10:53:05;14.90;1.00
7564;DHT22;3823;53.586;10.040;2023-04-03T10:55:52;14.50;1.00
7564;DHT22;3823;53.586;10.040;2023-04-03T10:58:43;13.40;1.00
7564;DHT22;3823;53.586;10.040;2023-04-03T11:01:13;12.50;1.00
7564;DHT22;3823;53.586;10.040;2023-04-03T11:03:53;11.60;1.00
7564;DHT22;3823;53.586;10.040;2023-04-03T11:06:21;11.50;1.00
7564;DHT22;3823;53.586;10.040;2023-04-03T11:08:58;11.20;1.00
7564;DHT22;3823;53.586;10.040;2023-04-03T11:11:27;12.00;1.00
7564;DHT22;3823;53.586;10.040;2023-04-03T11:16:30;11.60;1.00
7564;DHT22;3823;53.586;10.040;2023-04-03T11:19:03;11.70;1.00
7564;DHT22;3823;53.586;10.040;2023-04-03T11:21:43;12.10;1.00
7564;DHT22;3823;53.586;10.040;2023-04-03T11:24:20;12.50;1.00
7564;DHT22;3823;53.586;10.040;2023-04-03T11:26:49;12.60;1.00
7564;DHT22;3823;53.586;10.040;2023-04-03T11:29:21;12.30;1.00
7564;DHT22;3823;53.586;10.040;2023-04-03T11:34:40;11.90;1.00
7564;DHT22;3823;53.586;10.040;2023-04-03T11:37:34;11.90;1.00
7564;DHT22;3823;53.586;10.040;2023-04-03T11:40:28;12.40;1.00
7564;DHT22;3823;53.586;10.040;2023-04-03T11:43:07;12.20;1.00
7564;DHT22;3823;53.586;10.040;2023-04-03T11:45:53;12.00;1.00
7564;DHT22;3823;53.586;10.040;2023-04-03T11:51:02;10.80;1.00
7564;DHT22;3823;53.586;10.040;2023-04-03T11:53:29;10.90;1.00
7564;DHT22;3823;53.586;10.040;2023-04-03T11:56:00;11.20;1.00
7564;DHT22;3823;53.586;10.040;2023-04-03T11:58:34;10.90;1.00
7564;DHT22;3823;53.586;10.040;2023-04-03T12:01:01;10.80;1.00
7564;DHT22;3823;53.586;10.040;2023-04-03T12:08:28;12.10;1.00
7564;DHT22;3823;53.586;10.040;2023-04-03T12:11:15;11.60;1.00
7564;DHT22;3823;53.586;10.040;2023-04-03T12:32:45;11.40;1.00
7564;DHT22;3823;53.586;10.040;2023-04-03T12:48:51;11.10;1.00
7564;DHT22;3823;53.586;10.040;2023-04-03T12:51:42;11.30;1.00
7564;DHT22;3823;53.586;10.040;2023-04-03T12:54:32;11.70;1.00
7564;DHT22;3823;53.586;10.040;2023-04-03T12:57:19;11.90;1.00
7564;DHT22;3823;53.586;10.040;2023-04-03T12:59:45;12.10;1.00
7564;DHT22;3823;53.586;10.040;2023-04-03T13:02:29;11.90;1.00
7564;DHT22;3823;53.586;10.040;2023-04-03T13:05:05;11.90;1.00
7564;DHT22;3823;53.586;10.040;2023-04-03T13:07:36;11.30;1.00
7564;DHT22;3823;53.586;10.040;2023-04-03T13:12:45;10.80;1.00
7564;DHT22;3823;53.586;10.040;2023-04-03T13:15:40;10.10;1.00
7564;DHT22;3823;53.586;10.040;2023-04-03T13:18:21;10.40;1.00
7564;DHT22;3823;53.586;10.040;2023-04-03T13:20:48;10.90;1.00
7564;DHT22;3823;53.586;10.040;2023-04-03T13:23:17;11.00;1.00
7564;DHT22;3823;53.586;10.040;2023-04-03T13:25:45;11.10;1.00
7564;DHT22;3823;53.586;10.040;2023-04-03T13:28:18;10.80;1.00
7564;DHT22;3823;53.586;10.040;2023-04-03T13:31:01;10.80;1.00
7564;DHT22;3823;53.586;10.040;2023-04-03T13:33:30;11.20;1.00
7564;DHT22;3823;53.586;10.040;2023-04-03T13:36:02;11.40;1.00
7564;DHT22;3823;53.586;10.040;2023-04-03T13:38:30;11.20;1.00
7564;DHT22;3823;53.586;10.040;2023-04-03T13:41:02;10.80;1.00
7564;DHT22;3823;53.586;10.040;2023-04-03T13:43:37;10.70;1.00
7564;DHT22;3823;53.586;10.040;2023-04-03T13:46:04;10.70;1.00
7564;DHT22;3823;53.586;10.040;2023-04-03T13:48:43;10.60;1.00
7564;DHT22;3823;53.586;10.040;2023-04-03T13:53:58;11.00;1.00
7564;DHT22;3823;53.586;10.040;2023-04-03T13:56:32;10.90;1.00
7564;DHT22;3823;53.586;10.040;2023-04-03T14:01:47;11.30;1.00
7564;DHT22;3823;53.586;10.040;2023-04-03T14:04:22;11.20;1.00
7564;DHT22;3823;53.586;10.040;2023-04-03T14:06:49;11.00;1.00
7564;DHT22;3823;53.586;10.040;2023-04-03T14:09:16;10.70;1.00
7564;DHT22;3823;53.586;10.040;2023-04-03T14:11:43;10.60;1.00
7564;DHT22;3823;53.586;10.040;2023-04-03T14:14:21;10.30;1.00
7564;DHT22;3823;53.586;10.040;2023-04-03T14:16:52;10.00;1.00
7564;DHT22;3823;53.586;10.040;2023-04-03T14:19:31;10.10;1.00
7564;DHT22;3823;53.586;10.040;2023-04-03T14:21:58;10.10;1.00
7564;DHT22;3823;53.586;10.040;2023-04-03T14:24:24;10.30;1.00
7564;DHT22;3823;53.586;10.040;2023-04-03T14:26:52;10.40;1.00
7564;DHT22;3823;53.586;10.040;2023-04-03T14:29:19;10.30;1.00
7564;DHT22;3823;53.586;10.040;2023-04-03T14:31:46;10.40;1.00
7564;DHT22;3823;53.586;10.040;2023-04-03T14:34:14;10.80;1.00
7564;DHT22;3823;53.586;10.040;2023-04-03T14:36:40;10.80;1.00
7564;DHT22;3823;53.586;10.040;2023-04-03T14:39:10;10.80;1.00
7564;DHT22;3823;53.586;10.040;2023-04-03T14:41:36;10.80;1.00
7564;DHT22;3823;53.586;10.040;2023-04-03T14:44:02;10.60;1.00
7564;DHT22;3823;53.586;10.040;2023-04-03T14:46:32;11.00;1.00
7564;DHT22;3823;53.586;10.040;2023-04-03T14:48:58;11.20;1.00
7564;DHT22;3823;53.586;10.040;2023-04-03T14:51:24;11.00;1.00
7564;DHT22;3823;53.586;10.040;2023-04-03T14:53:50;10.40;1.00
7564;DHT22;3823;53.586;10.040;2023-04-03T14:56:26;9.90;1.00
7564;DHT22;3823;53.586;10.040;2023-04-03T14:58:58;9.70;1.00
7564;DHT22;3823;53.586;10.040;2023-04-03T15:01:24;9.80;1.00
7564;DHT22;3823;53.586;10.040;2023-04-03T15:03:50;10.10;1.00
7564;DHT22;3823;53.586;10.040;2023-04-03T15:06:16;10.50;1.00
7564;DHT22;3823;53.586;10.040;2023-04-03T15:08:43;10.70;1.00
7564;DHT22;3823;53.586;10.040;2023-04-03T15:11:10;10.60;1.00
7564;DHT22;3823;53.586;10.040;2023-04-03T15:13:37;10.00;1.00
7564;DHT22;3823;53.586;10.040;2023-04-03T15:16:03;9.70;1.00
7564;DHT22;3823;53.586;10.040;2023-04-03T15:18:35;9.70;1.00
7564;DHT22;3823;53.586;10.040;2023-04-03T15:21:02;9.80;1.00
7564;DHT22;3823;53.586;10.040;2023-04-03T15:23:28;10.00;1.00
7564;DHT22;3823;53.586;10.040;2023-04-03T15:25:55;10.30;1.00
7564;DHT22;3823;53.586;10.040;2023-04-03T15:28:31;10.50;1.00
7564;DHT22;3823;53.586;10.040;2023-04-03T15:30:57;10.40;1.00
7564;DHT22;3823;53.586;10.040;2023-04-03T15:33:24;10.40;1.00
7564;DHT22;3823;53.586;10.040;2023-04-03T15:35:50;10.40;1.00
7564;DHT22;3823;53.586;10.040;2023-04-03T15:38:16;10.20;1.00
7564;DHT22;3823;53.586;10.040;2023-04-03T15:40:42;10.00;1.00
7564;DHT22;3823;53.586;10.040;2023-04-03T15:43:09;10.00;1.00
7564;DHT22;3823;53.586;10.040;2023-04-03T15:45:36;10.10;1.00
7564;DHT22;3823;53.586;10.040;2023-04-03T15:48:03;10.20;1.00
7564;DHT22;3823;53.586;10.040;2023-04-03T15:50:29;9.90;1.00
7564;DHT22;3823;53.586;10.040;2023-04-03T15:52:55;9.80;1.00
7564;DHT22;3823;53.586;10.040;2023-04-03T15:55:22;9.90;1.00
7564;DHT22;3823;53.586;10.040;2023-04-03T15:57:47;9.70;1.00
7564;DHT22;3823;53.586;10.040;2023-04-03T16:00:13;9.80;1.00
7564;DHT22;3823;53.586;10.040;2023-04-03T16:02:40;9.70;1.00
7564;DHT22;3823;53.586;10.040;2023-04-03T16:05:06;9.90;1.00
7564;DHT22;3823;53.586;10.040;2023-04-03T16:07:32;9.80;1.00
7564;DHT22;3823;53.586;10.040;2023-04-03T16:09:57;9.70;1.00
7564;DHT22;3823;53.586;10.040;2023-04-03T16:12:23;9.60;1.00
7564;DHT22;3823;53.586;10.040;2023-04-03T16:14:49;9.50;1.00
7564;DHT22;3823;53.586;10.040;2023-04-03T16:17:14;9.50;1.00
7564;DHT22;3823;53.586;10.040;2023-04-03T16:19:40;9.60;1.00
7564;DHT22;3823;53.586;10.040;2023-04-03T16:22:05;9.40;1.00
7564;DHT22;3823;53.586;10.040;2023-04-03T16:24:31;9.00;1.00
7564;DHT22;3823;53.586;10.040;2023-04-03T16:26:57;9.10;1.00
7564;DHT22;3823;53.586;10.040;2023-04-03T16:29:23;9.20;1.00
7564;DHT22;3823;53.586;10.040;2023-04-03T16:31:49;8.50;1.00
7564;DHT22;3823;53.586;10.040;2023-04-03T16:34:14;8.20;1.00
7564;DHT22;3823;53.586;10.040;2023-04-03T16:36:41;8.30;1.00
7564;DHT22;3823;53.586;10.040;2023-04-03T16:39:06;8.50;1.00
7564;DHT22;3823;53.586;10.040;2023-04-03T16:41:35;8.70;1.00
7564;DHT22;3823;53.586;10.040;2023-04-03T16:44:00;8.70;1.00
7564;DHT22;3823;53.586;10.040;2023-04-03T16:46:26;8.60;1.00
7564;DHT22;3823;53.586;10.040;2023-04-03T16:48:52;8.20;1.00
7564;DHT22;3823;53.586;10.040;2023-04-03T16:51:17;7.90;1.00
7564;DHT22;3823;53.586;10.040;2023-04-03T16:53:43;8.00;1.00
7564;DHT22;3823;53.586;10.040;2023-04-03T16:56:08;7.70;1.00
7564;DHT22;3823;53.586;10.040;2023-04-03T16:58:34;7.70;1.00
7564;DHT22;3823;53.586;10.040;2023-04-03T17:01:15;7.80;1.00
7564;DHT22;3823;53.586;10.040;2023-04-03T17:03:40;7.50;1.00
7564;DHT22;3823;53.586;10.040;2023-04-03T17:06:06;7.60;1.00
7564;DHT22;3823;53.586;10.040;2023-04-03T17:08:32;7.60;1.00
7564;DHT22;3823;53.586;10.040;2023-04-03T17:10:57;7.50;1.00
7564;DHT22;3823;53.586;10.040;2023-04-03T17:13:23;7.70;1.00
7564;DHT22;3823;53.586;10.040;2023-04-03T17:15:52;7.80;1.00
7564;DHT22;3823;53.586;10.040;2023-04-03T17:18:17;7.90;1.00
7564;DHT22;3823;53.586;10.040;2023-04-03T17:20:43;7.80;1.00
7564;DHT22;3823;53.586;10.040;2023-04-03T17:23:08;7.70;1.00
7564;DHT22;3823;53.586;10.040;2023-04-03T17:25:34;7.60;1.00
7564;DHT22;3823;53.586;10.040;2023-04-03T17:27:59;7.50;1.00
7564;DHT22;3823;53.586;10.040;2023-04-03T17:30:25;7.30;1.00
7564;DHT22;3823;53.586;10.040;2023-04-03T17:32:50;7.30;1.00
7564;DHT22;3823;53.586;10.040;2023-04-03T17:35:16;7.50;1.00
7564;DHT22;3823;53.586;10.040;2023-04-03T17:37:41;7.20;1.00
7564;DHT22;3823;53.586;10.040;2023-04-03T17:40:07;7.00;1.00
7564;DHT22;3823;53.586;10.040;2023-04-03T17:42:33;6.80;1.00
7564;DHT22;3823;53.586;10.040;2023-04-03T17:44:59;6.60;1.00
7564;DHT22;3823;53.586;10.040;2023-04-03T17:47:25;6.70;1.00
7564;DHT22;3823;53.586;10.040;2023-04-03T17:49:51;6.80;1.00
7564;DHT22;3823;53.586;10.040;2023-04-03T17:52:17;6.90;1.00
7564;DHT22;3823;53.586;10.040;2023-04-03T17:54:42;6.90;1.00
7564;DHT22;3823;53.586;10.040;2023-04-03T17:57:08;6.90;1.00
7564;DHT22;3823;53.586;10.040;2023-04-03T17:59:33;6.70;1.00
7564;DHT22;3823;53.586;10.040;2023-04-03T18:01:59;6.40;1.00
7564;DHT22;3823;53.586;10.040;2023-04-03T18:04:25;6.20;1.00
7564;DHT22;3823;53.586;10.040;2023-04-03T18:06:52;6.20;1.00
7564;DHT22;3823;53.586;10.040;2023-04-03T18:09:23;6.20;1.00
7564;DHT22;3823;53.586;10.040;2023-04-03T18:11:50;6.10;1.00
7564;DHT22;3823;53.586;10.040;2023-04-03T18:14:18;6.20;1.00
7564;DHT22;3823;53.586;10.040;2023-04-03T18:16:45;6.20;1.00
7564;DHT22;3823;53.586;10.040;2023-04-03T18:19:11;6.20;1.00
7564;DHT22;3823;53.586;10.040;2023-04-03T18:21:37;6.20;1.00
7564;DHT22;3823;53.586;10.040;2023-04-03T18:24:05;6.30;1.00
7564;DHT22;3823;53.586;10.040;2023-04-03T18:26:32;6.50;1.00
7564;DHT22;3823;53.586;10.040;2023-04-03T18:29:00;6.50;1.00
7564;DHT22;3823;53.586;10.040;2023-04-03T18:31:27;6.50;1.00
7564;DHT22;3823;53.586;10.040;2023-04-03T18:33:55;6.60;1.00
7564;DHT22;3823;53.586;10.040;2023-04-03T18:36:23;6.60;1.00
7564;DHT22;3823;53.586;10.040;2023-04-03T18:38:49;6.70;1.00
7564;DHT22;3823;53.586;10.040;2023-04-03T18:41:14;6.60;1.00
7564;DHT22;3823;53.586;10.040;2023-04-03T18:43:40;6.60;1.00
7564;DHT22;3823;53.586;10.040;2023-04-03T18:46:06;6.50;1.00
7564;DHT22;3823;53.586;10.040;2023-04-03T18:48:33;6.40;1.00
7564;DHT22;3823;53.586;10.040;2023-04-03T18:50:59;6.20;1.00
7564;DHT22;3823;53.586;10.040;2023-04-03T18:53:25;6.10;1.00
7564;DHT22;3823;53.586;10.040;2023-04-03T18:55:51;5.90;1.00
7564;DHT22;3823;53.586;10.040;2023-04-03T18:58:16;6.00;1.00
7564;DHT22;3823;53.586;10.040;2023-04-03T19:00:42;6.00;1.00
7564;DHT22;3823;53.586;10.040;2023-04-03T19:03:09;6.00;1.00
7564;DHT22;3823;53.586;10.040;2023-04-03T19:05:35;6.10;1.00
7564;DHT22;3823;53.586;10.040;2023-04-03T19:08:01;6.10;1.00
7564;DHT22;3823;53.586;10.040;2023-04-03T19:10:27;5.90;1.00
7564;DHT22;3823;53.586;10.040;2023-04-03T19:12:53;5.70;1.00
7564;DHT22;3823;53.586;10.040;2023-04-03T19:15:20;5.60;1.00
7564;DHT22;3823;53.586;10.040;2023-04-03T19:17:46;5.50;1.00
7564;DHT22;3823;53.586;10.040;2023-04-03T19:20:12;5.50;1.00
7564;DHT22;3823;53.586;10.040;2023-04-03T19:22:39;5.50;1.00
7564;DHT22;3823;53.586;10.040;2023-04-03T19:25:06;5.50;1.00
7564;DHT22;3823;53.586;10.040;2023-04-03T19:27:32;5.60;1.00
7564;DHT22;3823;53.586;10.040;2023-04-03T19:29:59;5.80;1.00
7564;DHT22;3823;53.586;10.040;2023-04-03T19:32:25;5.80;1.00
7564;DHT22;3823;53.586;10.040;2023-04-03T19:34:51;5.90;1.00
7564;DHT22;3823;53.586;10.040;2023-04-03T19:37:16;5.90;1.00
7564;DHT22;3823;53.586;10.040;2023-04-03T19:39:42;5.90;1.00
7564;DHT22;3823;53.586;10.040;2023-04-03T19:42:08;5.90;1.00
7564;DHT22;3823;53.586;10.040;2023-04-03T19:44:35;6.00;1.00
7564;DHT22;3823;53.586;10.040;2023-04-03T19:47:02;5.80;1.00
7564;DHT22;3823;53.586;10.040;2023-04-03T19:49:28;5.70;1.00
7564;DHT22;3823;53.586;10.040;2023-04-03T19:51:54;5.60;1.00
7564;DHT22;3823;53.586;10.040;2023-04-03T19:54:20;5.70;1.00
7564;DHT22;3823;53.586;10.040;2023-04-03T19:56:46;5.60;1.00
7564;DHT22;3823;53.586;10.040;2023-04-03T19:59:12;5.50;1.00
7564;DHT22;3823;53.586;10.040;2023-04-03T20:01:38;5.40;1.00
7564;DHT22;3823;53.586;10.040;2023-04-03T20:04:03;5.20;1.00
7564;DHT22;3823;53.586;10.040;2023-04-03T20:06:29;5.10;1.00
7564;DHT22;3823;53.586;10.040;2023-04-03T20:08:55;5.10;1.00
7564;DHT22;3823;53.586;10.040;2023-04-03T20:11:21;5.10;1.00
7564;DHT22;3823;53.586;10.040;2023-04-03T20:13:48;5.10;1.00
7564;DHT22;3823;53.586;10.040;2023-04-03T20:16:14;5.30;1.00
7564;DHT22;3823;53.586;10.040;2023-04-03T20:18:40;5.40;1.00
7564;DHT22;3823;53.586;10.040;2023-04-03T20:21:06;5.40;1.00
7564;DHT22;3823;53.586;10.040;2023-04-03T20:23:33;5.30;1.00
7564;DHT22;3823;53.586;10.040;2023-04-03T20:26:01;5.20;1.00
7564;DHT22;3823;53.586;10.040;2023-04-03T20:28:28;5.20;1.00
7564;DHT22;3823;53.586;10.040;2023-04-03T20:30:54;5.10;1.00
7564;DHT22;3823;53.586;10.040;2023-04-03T20:33:21;5.10;1.00
7564;DHT22;3823;53.586;10.040;2023-04-03T20:35:47;5.10;1.00
7564;DHT22;3823;53.586;10.040;2023-04-03T20:38:14;5.10;1.00
7564;DHT22;3823;53.586;10.040;2023-04-03T20:40:40;5.00;1.00
7564;DHT22;3823;53.586;10.040;2023-04-03T20:43:06;5.00;1.00
7564;DHT22;3823;53.586;10.040;2023-04-03T20:45:32;5.00;1.00
7564;DHT22;3823;53.586;10.040;2023-04-03T20:47:58;5.10;1.00
7564;DHT22;3823;53.586;10.040;2023-04-03T20:50:25;5.00;1.00
7564;DHT22;3823;53.586;10.040;2023-04-03T20:52:52;5.10;1.00
7564;DHT22;3823;53.586;10.040;2023-04-03T20:55:19;5.10;1.00
7564;DHT22;3823;53.586;10.040;2023-04-03T20:57:44;5.10;1.00
